createdAt,value
2023-04-13T00:02:28.594Z,8.70
2023-04-13T00:05:00.907Z,8.72
2023-04-13T00:07:33.999Z,8.74
2023-04-13T00:10:11.008Z,8.74
2023-04-13T00:12:41.162Z,8.76
2023-04-13T00:15:13.484Z,8.70
2023-04-13T00:17:46.528Z,8.70
2023-04-13T00:20:17.840Z,8.71
2023-04-13T00:22:48.883Z,8.65
2023-04-13T00:25:21.989Z,8.62
2023-04-13T00:27:55.345Z,8.52
2023-04-13T00:30:26.217Z,8.48
2023-04-13T00:32:57.108Z,8.51
2023-04-13T00:35:29.962Z,8.36
2023-04-13T00:38:10.258Z,8.22
2023-04-13T00:40:41.098Z,8.12
2023-04-13T00:43:11.929Z,8.18
2023-04-13T00:45:47.777Z,8.22
2023-04-13T00:48:20.552Z,8.20
2023-04-13T00:50:51.986Z,8.14
2023-04-13T00:53:24.724Z,8.24
2023-04-13T00:55:58.320Z,8.14
2023-04-13T00:58:28.934Z,8.18
2023-04-13T01:00:59.556Z,8.14
2023-04-13T01:03:31.876Z,8.27
2023-04-13T01:06:11.605Z,8.17
2023-04-13T01:08:51.881Z,8.21
2023-04-13T01:11:41.486Z,8.23
2023-04-13T01:14:27.740Z,8.22
2023-04-13T01:17:02.433Z,8.32
2023-04-13T01:20:06.456Z,8.30
2023-04-13T01:22:39.850Z,8.16
2023-04-13T01:25:22.721Z,8.20
2023-04-13T01:28:06.435Z,8.33
2023-04-13T01:30:38.816Z,8.18
2023-04-13T01:33:11.319Z,8.24
2023-04-13T01:35:42.269Z,8.10
2023-04-13T01:38:14.348Z,8.06
2023-04-13T01:40:46.092Z,8.22
2023-04-13T01:43:16.687Z,8.18
2023-04-13T01:45:55.899Z,8.02
2023-04-13T01:48:51.915Z,8.00
2023-04-13T01:51:29.402Z,8.08
2023-04-13T01:54:12.887Z,8.00
2023-04-13T01:56:45.528Z,8.04
2023-04-13T01:59:16.920Z,8.01
2023-04-13T02:01:48.815Z,8.16
2023-04-13T02:04:20.013Z,8.14
2023-04-13T02:06:51.579Z,7.99
2023-04-13T02:09:23.722Z,7.89
2023-04-13T02:11:55.380Z,7.85
2023-04-13T02:14:26.175Z,7.86
2023-04-13T02:16:58.432Z,7.70
2023-04-13T02:19:30.187Z,7.72
2023-04-13T02:22:01.240Z,7.65
2023-04-13T02:24:32.885Z,7.78
2023-04-13T02:27:04.118Z,7.65
2023-04-13T02:29:35.008Z,7.60
2023-04-13T02:32:07.977Z,7.50
2023-04-13T02:34:38.694Z,7.36
2023-04-13T02:37:09.495Z,7.34
2023-04-13T02:39:41.155Z,7.34
2023-04-13T02:42:12.036Z,7.44
2023-04-13T02:44:43.225Z,7.18
2023-04-13T02:47:14.684Z,7.13
2023-04-13T02:49:47.139Z,7.14
2023-04-13T02:52:18.002Z,7.12
2023-04-13T02:54:53.352Z,7.15
2023-04-13T02:57:25.208Z,7.10
2023-04-13T02:59:55.710Z,7.12
2023-04-13T03:02:27.993Z,7.01
2023-04-13T03:05:00.412Z,6.93
2023-04-13T03:07:31.874Z,6.83
2023-04-13T03:10:05.890Z,6.82
2023-04-13T03:12:37.730Z,6.79
2023-04-13T03:15:10.712Z,6.66
2023-04-13T03:17:44.085Z,6.76
2023-04-13T03:20:16.446Z,6.77
2023-04-13T03:22:47.256Z,6.82
2023-04-13T03:25:17.953Z,6.80
2023-04-13T03:27:48.661Z,6.76
2023-04-13T03:30:19.674Z,6.90
2023-04-13T03:32:51.827Z,6.75
2023-04-13T03:35:22.299Z,6.80
2023-04-13T03:37:52.994Z,6.81
2023-04-13T03:40:24.375Z,6.82
2023-04-13T03:42:54.886Z,6.94
2023-04-13T03:45:25.910Z,6.73
2023-04-13T03:47:56.547Z,6.64
2023-04-13T03:50:28.579Z,6.76
2023-04-13T03:52:58.996Z,6.86
2023-04-13T03:55:29.915Z,6.76
2023-04-13T03:58:03.826Z,6.71
2023-04-13T04:00:36.097Z,6.68
2023-04-13T04:03:09.019Z,6.67
2023-04-13T04:05:42.141Z,6.70
2023-04-13T04:08:12.535Z,6.86
2023-04-13T04:10:44.903Z,6.72
2023-04-13T04:13:17.790Z,6.80
2023-04-13T04:15:48.472Z,6.78
2023-04-13T04:18:20.415Z,6.81
2023-04-13T04:20:51.269Z,6.78
2023-04-13T04:23:24.966Z,6.80
2023-04-13T04:25:57.692Z,6.78
2023-04-13T04:28:30.571Z,6.78
2023-04-13T04:31:04.051Z,6.93
2023-04-13T04:33:36.057Z,6.97
2023-04-13T04:36:15.036Z,6.76
2023-04-13T04:38:47.625Z,6.85
2023-04-13T04:41:19.741Z,6.80
2023-04-13T04:43:50.286Z,6.88
2023-04-13T04:46:22.202Z,6.90
2023-04-13T04:48:55.552Z,7.03
2023-04-13T04:51:27.988Z,6.93
2023-04-13T04:54:00.311Z,6.90
2023-04-13T04:56:33.102Z,6.95
2023-04-13T04:59:04.776Z,6.90
2023-04-13T05:01:35.923Z,6.88
2023-04-13T05:04:08.067Z,6.93
2023-04-13T05:06:41.705Z,6.90
2023-04-13T05:09:12.716Z,6.95
2023-04-13T05:11:43.283Z,6.90
2023-04-13T05:14:15.549Z,6.95
2023-04-13T05:16:47.915Z,6.98
2023-04-13T05:19:18.848Z,7.08
2023-04-13T05:21:51.240Z,7.20
2023-04-13T05:24:21.746Z,7.14
2023-04-13T05:26:53.156Z,7.15
2023-04-13T05:29:24.952Z,7.28
2023-04-13T05:31:57.678Z,7.43
2023-04-13T05:34:32.359Z,7.44
2023-04-13T05:37:05.424Z,7.60
2023-04-13T05:39:36.298Z,7.60
2023-04-13T05:42:08.676Z,7.54
2023-04-13T05:44:39.321Z,7.50
2023-04-13T05:47:11.839Z,7.55
2023-04-13T05:49:42.469Z,7.57
2023-04-13T05:52:14.736Z,7.54
2023-04-13T05:54:45.661Z,7.39
2023-04-13T05:57:18.393Z,7.41
2023-04-13T05:59:48.868Z,7.28
2023-04-13T06:02:20.568Z,7.45
2023-04-13T06:04:52.929Z,7.50
2023-04-13T06:07:24.176Z,7.78
2023-04-13T06:09:55.472Z,7.64
2023-04-13T06:12:32.181Z,7.64
2023-04-13T06:15:03.669Z,7.80
2023-04-13T06:17:36.449Z,7.88
2023-04-13T06:20:11.098Z,7.96
2023-04-13T06:22:43.273Z,8.11
2023-04-13T06:25:15.161Z,8.50
2023-04-13T06:27:50.006Z,8.34
2023-04-13T06:30:24.123Z,8.21
2023-04-13T06:32:55.237Z,8.26
2023-04-13T06:35:26.106Z,8.32
2023-04-13T06:37:59.631Z,8.51
2023-04-13T06:40:32.517Z,8.64
2023-04-13T06:43:03.846Z,8.79
2023-04-13T06:45:37.164Z,9.02
2023-04-13T06:48:08.051Z,8.48
2023-04-13T06:50:42.595Z,8.46
2023-04-13T06:53:13.016Z,8.82
2023-04-13T06:55:45.033Z,8.85
2023-04-13T06:58:16.578Z,9.17
2023-04-13T07:00:48.949Z,9.05
2023-04-13T07:03:19.663Z,9.24
2023-04-13T07:05:51.988Z,9.15
2023-04-13T07:08:22.907Z,9.34
2023-04-13T07:10:58.843Z,9.36
2023-04-13T07:13:31.023Z,9.43
2023-04-13T07:16:01.879Z,9.10
2023-04-13T07:18:32.680Z,9.43
2023-04-13T07:21:04.444Z,9.56
2023-04-13T07:23:35.521Z,9.92
2023-04-13T07:26:08.504Z,9.87
2023-04-13T07:28:42.325Z,9.71
2023-04-13T07:31:13.581Z,9.78
2023-04-13T07:33:44.287Z,9.77
2023-04-13T07:36:15.290Z,10.12
2023-04-13T07:38:46.417Z,10.23
2023-04-13T07:41:19.705Z,10.36
2023-04-13T07:43:51.708Z,10.00
2023-04-13T07:46:24.116Z,10.36
2023-04-13T07:48:57.010Z,10.44
2023-04-13T07:51:27.544Z,10.26
2023-04-13T07:53:58.027Z,10.76
2023-04-13T07:56:30.979Z,10.68
2023-04-13T07:59:03.078Z,10.85
2023-04-13T08:01:34.845Z,10.46
2023-04-13T08:04:05.607Z,10.78
2023-04-13T08:06:37.002Z,11.04
2023-04-13T08:09:08.156Z,11.10
2023-04-13T08:11:38.650Z,11.16
2023-04-13T08:14:12.243Z,10.93
2023-04-13T08:16:46.468Z,11.19
2023-04-13T08:19:18.157Z,11.40
2023-04-13T08:21:49.895Z,11.36
2023-04-13T08:24:24.321Z,11.36
2023-04-13T08:26:57.339Z,11.73
2023-04-13T08:29:29.874Z,11.49
2023-04-13T08:32:00.489Z,11.35
2023-04-13T08:34:33.329Z,11.50
2023-04-13T08:37:05.883Z,11.69
2023-04-13T08:39:38.022Z,11.96
2023-04-13T08:42:08.761Z,12.10
2023-04-13T08:44:45.506Z,12.10
2023-04-13T08:47:16.988Z,11.96
2023-04-13T08:49:49.661Z,12.12
2023-04-13T08:52:24.476Z,12.04
2023-04-13T08:55:01.004Z,11.55
2023-04-13T08:57:34.957Z,11.77
2023-04-13T09:00:11.047Z,11.75
2023-04-13T09:03:00.232Z,11.82
2023-04-13T09:05:17.480Z,12.02
2023-04-13T09:07:53.836Z,11.88
2023-04-13T09:10:26.304Z,11.48
2023-04-13T09:12:57.441Z,12.11
2023-04-13T09:15:27.978Z,12.58
2023-04-13T09:18:10.843Z,12.48
2023-04-13T09:20:41.428Z,12.53
2023-04-13T09:23:16.545Z,13.04
2023-04-13T09:25:48.795Z,12.88
2023-04-13T09:28:21.255Z,12.55
2023-04-13T09:30:53.587Z,12.45
2023-04-13T09:33:24.233Z,12.76
2023-04-13T09:35:54.660Z,12.58
2023-04-13T09:38:28.351Z,12.54
2023-04-13T09:41:00.814Z,12.55
2023-04-13T09:43:38.809Z,12.80
2023-04-13T09:46:16.182Z,13.10
2023-04-13T09:48:46.879Z,13.28
2023-04-13T09:51:20.342Z,13.43
2023-04-13T09:53:53.620Z,13.40
2023-04-13T09:56:25.934Z,13.67
2023-04-13T09:58:58.203Z,13.40
2023-04-13T10:01:31.856Z,13.22
2023-04-13T10:04:03.477Z,13.75
2023-04-13T10:06:40.030Z,13.57
2023-04-13T10:09:12.784Z,14.07
2023-04-13T10:11:47.218Z,13.79
2023-04-13T10:14:28.416Z,13.53
2023-04-13T10:17:17.104Z,13.85
2023-04-13T10:19:50.788Z,13.95
2023-04-13T10:22:24.114Z,13.97
2023-04-13T10:24:56.375Z,13.82
2023-04-13T10:27:29.249Z,13.76
2023-04-13T10:30:01.731Z,13.52
2023-04-13T10:32:32.444Z,13.72
2023-04-13T10:35:13.424Z,13.42
2023-04-13T10:37:45.722Z,13.66
2023-04-13T10:40:17.282Z,13.78
2023-04-13T10:42:52.874Z,14.28
2023-04-13T10:45:32.408Z,14.48
2023-04-13T10:48:06.392Z,14.91
2023-04-13T10:50:38.697Z,15.09
2023-04-13T10:53:10.886Z,14.68
2023-04-13T10:55:41.518Z,14.85
2023-04-13T10:58:18.398Z,14.68
2023-04-13T11:00:53.768Z,14.83
2023-04-13T11:03:27.497Z,14.54
2023-04-13T11:05:59.986Z,14.54
2023-04-13T11:08:32.980Z,14.26
2023-04-13T11:11:03.477Z,14.19
2023-04-13T11:13:34.018Z,14.40
2023-04-13T11:16:08.025Z,14.58
2023-04-13T11:18:38.594Z,14.72
2023-04-13T11:21:17.343Z,13.99
2023-04-13T11:23:55.300Z,13.93
2023-04-13T11:26:36.255Z,13.54
2023-04-13T11:29:07.148Z,14.12
2023-04-13T11:31:40.151Z,14.17
2023-04-13T11:34:13.025Z,14.26
2023-04-13T11:36:48.667Z,14.35
2023-04-13T11:39:24.071Z,14.36
2023-04-13T11:41:57.329Z,14.42
2023-04-13T11:44:28.016Z,15.05
2023-04-13T11:47:00.237Z,14.88
2023-04-13T11:49:33.032Z,15.14
2023-04-13T11:52:10.554Z,14.96
2023-04-13T11:54:40.616Z,14.96
2023-04-13T11:57:11.621Z,15.04
2023-04-13T11:59:42.930Z,15.02
2023-04-13T12:02:22.087Z,14.49
2023-04-13T12:04:50.302Z,14.57
2023-04-13T12:07:23.392Z,15.02
2023-04-13T12:09:58.312Z,15.37
2023-04-13T12:12:51.095Z,15.84
2023-04-13T12:15:19.563Z,15.63
2023-04-13T12:17:43.998Z,15.57
2023-04-13T12:20:15.923Z,15.46
2023-04-13T12:22:57.697Z,15.34
2023-04-13T12:25:24.421Z,15.01
2023-04-13T12:27:55.540Z,15.01
2023-04-13T12:30:27.368Z,15.18
2023-04-13T12:32:59.161Z,15.45
2023-04-13T12:35:32.689Z,15.76
2023-04-13T12:38:06.007Z,15.29
2023-04-13T12:40:38.164Z,14.62
2023-04-13T12:43:09.152Z,14.14
2023-04-13T12:45:41.629Z,14.14
2023-04-13T12:48:15.466Z,14.28
2023-04-13T12:50:51.054Z,14.19
2023-04-13T12:53:22.404Z,14.36
2023-04-13T12:55:54.759Z,14.10
2023-04-13T12:58:30.741Z,14.15
2023-04-13T13:01:04.443Z,13.91
2023-04-13T13:03:36.861Z,14.37
2023-04-13T13:06:13.999Z,14.84
2023-04-13T13:08:47.006Z,14.86
2023-04-13T13:11:21.389Z,14.81
2023-04-13T13:13:52.618Z,15.10
2023-04-13T13:16:23.788Z,15.38
2023-04-13T13:18:55.357Z,15.68
2023-04-13T13:21:27.765Z,15.94
2023-04-13T13:24:01.159Z,15.81
2023-04-13T13:26:51.821Z,15.66
2023-04-13T13:29:09.546Z,15.84
2023-04-13T13:31:41.589Z,16.34
2023-04-13T13:34:12.663Z,15.90
2023-04-13T13:36:43.179Z,16.00
2023-04-13T13:39:17.847Z,15.30
2023-04-13T13:41:53.971Z,14.80
2023-04-13T13:44:25.961Z,14.64
2023-04-13T13:46:57.056Z,14.70
2023-04-13T13:49:29.435Z,14.65
2023-04-13T13:52:02.045Z,14.80
2023-04-13T13:54:34.966Z,15.42
2023-04-13T13:57:07.496Z,15.24
2023-04-13T13:59:38.992Z,15.78
2023-04-13T14:02:12.344Z,15.49
2023-04-13T14:04:44.446Z,15.35
2023-04-13T14:07:15.990Z,15.30
2023-04-13T14:09:48.682Z,15.14
2023-04-13T14:12:21.053Z,15.45
2023-04-13T14:14:54.446Z,15.26
2023-04-13T14:17:26.238Z,15.32
2023-04-13T14:19:56.796Z,15.24
2023-04-13T14:22:27.665Z,15.23
2023-04-13T14:24:59.539Z,15.29
2023-04-13T14:27:32.536Z,15.36
2023-04-13T14:30:04.116Z,15.23
2023-04-13T14:32:35.213Z,14.97
2023-04-13T14:35:06.377Z,14.96
2023-04-13T14:37:38.649Z,14.76
2023-04-13T14:40:13.425Z,14.84
2023-04-13T14:42:45.599Z,14.67
2023-04-13T14:45:17.721Z,14.58
2023-04-13T14:47:48.691Z,14.45
2023-04-13T14:50:19.502Z,14.76
2023-04-13T14:52:51.054Z,14.81
2023-04-13T14:55:21.761Z,14.89
2023-04-13T14:57:53.655Z,14.94
2023-04-13T15:00:25.800Z,14.86
2023-04-13T15:02:57.178Z,15.00
2023-04-13T15:05:28.390Z,14.92
2023-04-13T15:07:59.232Z,14.70
2023-04-13T15:10:30.408Z,14.93
2023-04-13T15:13:01.980Z,15.12
2023-04-13T15:15:34.457Z,14.82
2023-04-13T15:18:07.625Z,15.30
2023-04-13T15:20:38.188Z,15.77
2023-04-13T15:23:09.038Z,15.36
2023-04-13T15:25:41.858Z,15.39
2023-04-13T15:28:12.949Z,14.70
2023-04-13T15:30:43.526Z,14.45
2023-04-13T15:33:14.241Z,14.44
2023-04-13T15:35:45.078Z,14.38
2023-04-13T15:38:18.689Z,14.06
2023-04-13T15:40:51.306Z,14.52
2023-04-13T15:43:22.080Z,14.34
2023-04-13T15:45:54.604Z,14.39
2023-04-13T15:48:27.195Z,14.26
2023-04-13T15:51:03.881Z,14.44
2023-04-13T15:53:34.396Z,14.65
2023-04-13T15:56:06.614Z,14.63
2023-04-13T15:58:37.365Z,14.81
2023-04-13T16:01:11.315Z,14.70
2023-04-13T16:06:05.228Z,14.50
2023-04-13T16:08:35.887Z,14.58
2023-04-13T16:11:07.752Z,14.44
2023-04-13T16:13:49.457Z,14.56
2023-04-13T16:16:14.951Z,14.41
2023-04-13T16:18:45.673Z,14.42
2023-04-13T16:21:23.847Z,14.60
2023-04-13T16:23:54.368Z,14.48
2023-04-13T16:26:26.698Z,14.27
2023-04-13T16:28:57.987Z,14.46
2023-04-13T16:31:31.237Z,14.42
2023-04-13T16:34:11.783Z,14.66
2023-04-13T16:36:36.932Z,14.47
2023-04-13T16:39:13.385Z,14.71
2023-04-13T16:41:44.903Z,14.70
2023-04-13T16:44:16.631Z,14.78
2023-04-13T16:46:51.137Z,14.86
2023-04-13T16:49:24.218Z,14.71
2023-04-13T16:51:55.244Z,14.56
2023-04-13T16:54:26.404Z,14.64
2023-04-13T16:56:58.633Z,14.71
2023-04-13T16:59:32.280Z,14.72
2023-04-13T17:02:03.458Z,14.46
2023-04-13T17:04:34.264Z,14.18
2023-04-13T17:07:06.420Z,14.06
2023-04-13T17:09:37.437Z,14.12
2023-04-13T17:12:09.596Z,14.16
2023-04-13T17:14:43.303Z,14.20
2023-04-13T17:17:14.036Z,13.86
2023-04-13T17:19:49.198Z,13.68
2023-04-13T17:22:20.036Z,13.40
2023-04-13T17:24:51.074Z,13.34
2023-04-13T17:27:23.255Z,13.09
2023-04-13T17:30:03.514Z,13.10
2023-04-13T17:32:34.949Z,13.15
2023-04-13T17:35:07.476Z,12.95
2023-04-13T17:37:38.115Z,12.75
2023-04-13T17:40:10.508Z,12.53
2023-04-13T17:42:41.586Z,12.30
2023-04-13T17:45:14.649Z,12.34
2023-04-13T17:47:49.746Z,12.31
2023-04-13T17:50:21.406Z,12.20
2023-04-13T17:52:52.276Z,12.16
2023-04-13T17:55:24.517Z,11.97
2023-04-13T17:57:55.105Z,11.76
2023-04-13T18:00:27.939Z,11.64
2023-04-13T18:02:59.070Z,11.50
2023-04-13T18:05:31.224Z,11.40
2023-04-13T18:08:01.895Z,11.29
2023-04-13T18:10:33.028Z,11.28
2023-04-13T18:13:05.513Z,11.21
2023-04-13T18:15:37.327Z,11.13
2023-04-13T18:18:09.456Z,11.02
2023-04-13T18:20:41.458Z,11.02
2023-04-13T18:23:12.693Z,10.98
2023-04-13T18:25:43.273Z,10.90
2023-04-13T18:28:15.190Z,10.88
2023-04-13T18:30:46.751Z,10.86
2023-04-13T18:33:19.056Z,10.74
2023-04-13T18:35:50.523Z,10.64
2023-04-13T18:38:22.767Z,10.59
2023-04-13T18:40:54.901Z,10.52
2023-04-13T18:43:25.434Z,10.44
2023-04-13T18:45:56.941Z,10.39
2023-04-13T18:48:30.990Z,10.38
2023-04-13T18:51:03.788Z,10.26
2023-04-13T18:53:35.599Z,10.28
2023-04-13T18:56:09.288Z,10.33
2023-04-13T18:58:40.152Z,10.20
2023-04-13T19:01:20.226Z,10.12
2023-04-13T19:03:54.194Z,10.09
2023-04-13T19:06:27.921Z,10.04
2023-04-13T19:08:58.620Z,10.04
2023-04-13T19:11:29.107Z,10.10
2023-04-13T19:14:00.924Z,10.14
2023-04-13T19:16:33.730Z,10.11
2023-04-13T19:19:07.623Z,10.18
2023-04-13T19:21:39.756Z,10.07
2023-04-13T19:24:12.901Z,10.16
2023-04-13T19:26:45.037Z,10.33
2023-04-13T19:29:17.331Z,10.29
2023-04-13T19:31:49.976Z,10.19
2023-04-13T19:34:20.716Z,9.96
2023-04-13T19:36:53.937Z,9.82
2023-04-13T19:39:24.565Z,9.75
2023-04-13T19:41:56.970Z,9.71
2023-04-13T19:44:28.040Z,9.67
2023-04-13T19:46:58.952Z,9.78
2023-04-13T19:49:29.522Z,9.69
2023-04-13T19:52:00.104Z,9.68
2023-04-13T19:54:31.143Z,9.66
2023-04-13T19:57:02.194Z,9.67
2023-04-13T19:59:32.721Z,9.68
2023-04-13T20:02:04.920Z,9.73
2023-04-13T20:04:37.754Z,9.70
2023-04-13T20:07:11.823Z,9.69
2023-04-13T20:09:42.000Z,9.67
2023-04-13T20:12:13.980Z,9.68
2023-04-13T20:14:46.472Z,9.68
2023-04-13T20:17:17.132Z,9.61
2023-04-13T20:19:47.960Z,9.65
2023-04-13T20:22:18.610Z,9.66
2023-04-13T20:24:49.591Z,9.68
2023-04-13T20:27:23.946Z,9.60
2023-04-13T20:29:54.460Z,9.49
2023-04-13T20:32:25.356Z,9.47
2023-04-13T20:34:56.359Z,9.44
2023-04-13T20:37:28.578Z,9.42
2023-04-13T20:40:02.177Z,9.38
2023-04-13T20:42:35.537Z,9.39
2023-04-13T20:45:10.846Z,9.29
2023-04-13T20:47:45.668Z,9.32
2023-04-13T20:50:25.709Z,9.43
2023-04-13T20:52:56.940Z,9.47
2023-04-13T20:55:27.812Z,9.46
2023-04-13T20:58:01.371Z,9.42
2023-04-13T21:00:34.100Z,9.34
2023-04-13T21:03:05.148Z,9.36
2023-04-13T21:05:37.348Z,9.18
2023-04-13T21:08:09.511Z,9.14
2023-04-13T21:10:39.992Z,9.09
2023-04-13T21:13:10.953Z,9.04
2023-04-13T21:15:41.528Z,9.02
2023-04-13T21:18:13.758Z,8.94
2023-04-13T21:20:44.744Z,8.92
2023-04-13T21:23:15.326Z,8.90
2023-04-13T21:25:48.684Z,8.83
2023-04-13T21:28:20.489Z,8.78
2023-04-13T21:30:52.271Z,8.74
2023-04-13T21:33:23.758Z,8.74
2023-04-13T21:35:54.418Z,8.72
2023-04-13T21:38:25.465Z,8.79
2023-04-13T21:40:56.340Z,8.84
2023-04-13T21:43:27.206Z,8.86
2023-04-13T21:45:58.820Z,8.78
2023-04-13T21:48:32.571Z,8.72
2023-04-13T21:51:04.320Z,8.70
2023-04-13T21:53:36.717Z,8.72
2023-04-13T21:56:07.697Z,8.72
2023-04-13T21:58:50.634Z,8.82
2023-04-13T22:01:23.020Z,8.82
2023-04-13T22:03:54.320Z,8.60
2023-04-13T22:06:27.451Z,8.54
2023-04-13T22:09:01.203Z,8.54
2023-04-13T22:11:33.731Z,8.49
2023-04-13T22:14:04.280Z,8.52
2023-04-13T22:16:36.424Z,8.49
2023-04-13T22:19:07.019Z,8.42
2023-04-13T22:21:38.995Z,8.38
2023-04-13T22:24:11.344Z,8.45
2023-04-13T22:26:42.078Z,8.46
2023-04-13T22:29:15.476Z,8.38
2023-04-13T22:31:46.167Z,8.35
2023-04-13T22:34:17.171Z,8.28
2023-04-13T22:36:52.256Z,8.28
2023-04-13T22:39:22.909Z,8.28
2023-04-13T22:41:53.419Z,8.31
2023-04-13T22:44:24.283Z,8.46
2023-04-13T22:46:55.638Z,8.43
2023-04-13T22:49:26.274Z,8.48
2023-04-13T22:51:56.977Z,8.60
2023-04-13T22:54:27.543Z,8.60
2023-04-13T22:57:00.140Z,8.54
2023-04-13T22:59:31.487Z,8.50
2023-04-13T23:02:03.692Z,8.48
2023-04-13T23:04:34.727Z,8.45
2023-04-13T23:07:07.690Z,8.48
2023-04-13T23:09:38.453Z,8.46
2023-04-13T23:12:08.978Z,8.46
2023-04-13T23:14:41.556Z,8.46
2023-04-13T23:17:12.672Z,8.51
2023-04-13T23:19:43.302Z,8.62
2023-04-13T23:22:14.205Z,8.65
2023-04-13T23:24:44.810Z,8.60
2023-04-13T23:27:15.549Z,8.73
2023-04-13T23:29:51.878Z,8.67
2023-04-13T23:32:22.597Z,8.60
2023-04-13T23:34:56.014Z,8.63
2023-04-13T23:37:26.529Z,8.60
2023-04-13T23:40:00.758Z,8.58
2023-04-13T23:42:31.456Z,8.66
2023-04-13T23:45:04.191Z,8.64
2023-04-13T23:47:35.441Z,8.73
2023-04-13T23:50:08.531Z,8.64
2023-04-13T23:52:39.409Z,8.66
2023-04-13T23:55:11.098Z,8.72
2023-04-13T23:57:41.856Z,8.76
